createdAt,value
2019-01-28T00:00:11.871Z,93837.11
2019-01-28T00:02:44.981Z,93841.29
2019-01-28T00:05:18.039Z,93845.20
2019-01-28T00:07:51.289Z,93846.78
2019-01-28T00:10:24.310Z,93860.67
2019-01-28T00:12:57.699Z,93855.28
2019-01-28T00:15:32.296Z,93855.16
2019-01-28T00:18:05.558Z,93853.89
2019-01-28T00:20:38.611Z,93846.50
2019-01-28T00:23:13.229Z,93845.53
2019-01-28T00:25:46.641Z,93847.81
2019-01-28T00:28:19.595Z,93845.98
2019-01-28T00:30:52.980Z,93835.70
2019-01-28T00:33:26.356Z,93831.89
2019-01-28T00:35:59.469Z,93843.41
2019-01-28T00:38:32.606Z,93836.95
2019-01-28T00:41:05.962Z,93831.86
2019-01-28T00:43:39.121Z,93842.87
2019-01-28T00:46:12.051Z,93841.19
2019-01-28T00:48:44.935Z,93840.95
2019-01-28T00:51:19.237Z,93844.27
2019-01-28T00:53:54.621Z,93837.89
2019-01-28T00:56:27.872Z,93841.67
2019-01-28T00:59:01.595Z,93833.06
2019-01-28T01:01:34.902Z,93852.50
2019-01-28T01:04:08.373Z,93847.80
2019-01-28T01:06:42.512Z,93853.23
2019-01-28T01:09:15.993Z,93847.61
2019-01-28T01:11:49.036Z,93843.05
2019-01-28T01:14:22.024Z,93847.58
2019-01-28T01:16:55.184Z,93839.03
2019-01-28T01:19:28.295Z,93835.07
2019-01-28T01:22:01.451Z,93827.97
2019-01-28T01:24:34.571Z,93820.23
2019-01-28T01:27:08.843Z,93823.28
2019-01-28T01:29:42.102Z,93814.34
2019-01-28T01:32:15.556Z,93817.25
2019-01-28T01:34:48.819Z,93807.86
2019-01-28T01:37:21.867Z,93796.77
2019-01-28T01:39:54.978Z,93799.47
2019-01-28T01:42:27.993Z,93802.02
2019-01-28T01:45:00.929Z,93806.19
2019-01-28T01:47:33.815Z,93811.25
2019-01-28T01:50:09.036Z,93811.06
2019-01-28T01:52:42.080Z,93812.69
2019-01-28T01:55:17.034Z,93804.95
2019-01-28T01:57:50.146Z,93802.92
2019-01-28T02:00:24.498Z,93807.58
2019-01-28T02:02:59.318Z,93807.16
2019-01-28T02:05:32.299Z,93792.13
2019-01-28T02:08:05.559Z,93792.16
2019-01-28T02:10:38.507Z,93790.47
2019-01-28T02:13:11.683Z,93778.80
2019-01-28T02:15:44.992Z,93782.95
2019-01-28T02:18:19.209Z,93767.33
2019-01-28T02:20:52.342Z,93768.91
2019-01-28T02:23:25.522Z,93772.63
2019-01-28T02:25:58.766Z,93769.16
2019-01-28T02:28:31.727Z,93769.86
2019-01-28T02:31:04.767Z,93760.33
2019-01-28T02:33:38.535Z,93763.48
2019-01-28T02:36:11.984Z,93763.92
2019-01-28T02:38:45.035Z,93755.38
2019-01-28T02:41:17.908Z,93756.76
2019-01-28T02:43:51.349Z,93756.28
2019-01-28T02:46:24.470Z,93744.48
2019-01-28T02:48:59.081Z,93746.52
2019-01-28T02:51:32.188Z,93741.09
2019-01-28T02:54:05.286Z,93736.34
2019-01-28T02:56:38.805Z,93746.53
2019-01-28T02:59:11.920Z,93742.35
2019-01-28T03:01:45.434Z,93745.16
2019-01-28T03:04:18.855Z,93741.33
2019-01-28T03:06:52.812Z,93740.91
2019-01-28T03:09:26.738Z,93738.38
2019-01-28T03:11:59.957Z,93749.67
2019-01-28T03:14:33.281Z,93753.88
2019-01-28T03:17:10.162Z,93758.23
2019-01-28T03:19:44.095Z,93766.67
2019-01-28T03:22:18.243Z,93756.31
2019-01-28T03:24:51.632Z,93751.69
2019-01-28T03:27:24.582Z,93745.61
2019-01-28T03:29:57.985Z,93751.83
2019-01-28T03:32:31.029Z,93758.07
2019-01-28T03:35:04.330Z,93753.47
2019-01-28T03:37:39.019Z,93735.63
2019-01-28T03:40:15.654Z,93753.83
2019-01-28T03:42:48.890Z,93743.06
2019-01-28T03:45:23.034Z,93747.02
2019-01-28T03:47:56.161Z,93741.21
2019-01-28T03:50:29.501Z,93742.73
2019-01-28T03:53:02.681Z,93751.33
2019-01-28T03:55:36.591Z,93743.52
2019-01-28T03:58:09.924Z,93735.89
2019-01-28T04:00:43.327Z,93742.69
2019-01-28T04:03:16.311Z,93733.17
2019-01-28T04:05:49.718Z,93752.70
2019-01-28T04:08:22.730Z,93744.12
2019-01-28T04:10:55.875Z,93734.72
2019-01-28T04:13:28.952Z,93747.47
2019-01-28T04:16:01.955Z,93752.84
2019-01-28T04:18:35.065Z,93735.63
2019-01-28T04:21:07.836Z,93734.24
2019-01-28T04:23:41.209Z,93731.80
2019-01-28T04:26:14.817Z,93745.03
2019-01-28T04:28:48.019Z,93729.22
2019-01-28T04:31:21.546Z,93735.30
2019-01-28T04:33:54.800Z,93731.80
2019-01-28T04:36:28.328Z,93725.95
2019-01-28T04:39:01.707Z,93730.76
2019-01-28T04:41:35.153Z,93729.81
2019-01-28T04:44:08.500Z,93725.66
2019-01-28T04:46:41.868Z,93738.94
2019-01-28T04:49:14.841Z,93721.44
2019-01-28T04:51:48.200Z,93726.38
2019-01-28T04:54:21.444Z,93723.60
2019-01-28T04:56:55.059Z,93720.64
2019-01-28T04:59:29.761Z,93719.02
2019-01-28T05:02:03.149Z,93716.38
2019-01-28T05:04:36.728Z,93713.90
2019-01-28T05:07:10.306Z,93710.02
2019-01-28T05:09:43.505Z,93706.70
2019-01-28T05:12:16.877Z,93707.31
2019-01-28T05:14:50.294Z,93704.06
2019-01-28T05:17:23.632Z,93705.44
2019-01-28T05:19:57.072Z,93705.66
2019-01-28T05:22:30.620Z,93710.73
2019-01-28T05:25:04.134Z,93710.30
2019-01-28T05:27:37.465Z,93705.78
2019-01-28T05:30:17.466Z,93700.86
2019-01-28T05:32:50.877Z,93701.83
2019-01-28T05:35:25.470Z,93709.58
2019-01-28T05:37:58.850Z,93700.42
2019-01-28T05:40:32.140Z,93704.91
2019-01-28T05:43:07.060Z,93707.76
2019-01-28T05:45:40.099Z,93712.48
2019-01-28T05:48:13.311Z,93722.34
2019-01-28T05:50:46.338Z,93723.24
2019-01-28T05:53:19.644Z,93725.47
2019-01-28T05:55:53.314Z,93730.95
2019-01-28T05:58:26.354Z,93716.12
2019-01-28T06:00:59.657Z,93721.28
2019-01-28T06:03:32.956Z,93723.68
2019-01-28T06:06:06.359Z,93715.84
2019-01-28T06:08:39.321Z,93727.95
2019-01-28T06:11:12.639Z,93725.03
2019-01-28T06:13:45.670Z,93728.21
2019-01-28T06:16:18.498Z,93718.50
2019-01-28T06:18:51.668Z,93709.30
2019-01-28T06:21:25.748Z,93709.81
2019-01-28T06:23:58.984Z,93718.03
2019-01-28T06:26:32.107Z,93711.03
2019-01-28T06:29:05.606Z,93724.53
2019-01-28T06:31:39.364Z,93725.75
2019-01-28T06:34:12.489Z,93727.78
2019-01-28T06:36:45.596Z,93726.83
2019-01-28T06:39:18.857Z,93741.81
2019-01-28T06:41:51.801Z,93733.08
2019-01-28T06:44:25.032Z,93741.51
2019-01-28T06:46:58.311Z,93733.89
2019-01-28T06:49:31.568Z,93732.98
2019-01-28T06:52:04.928Z,93724.12
2019-01-28T06:54:39.820Z,93727.25
2019-01-28T06:57:13.096Z,93727.23
2019-01-28T06:59:46.182Z,93737.88
2019-01-28T07:02:19.379Z,93745.42
2019-01-28T07:04:52.631Z,93744.50
2019-01-28T07:07:25.993Z,93744.49
2019-01-28T07:09:59.409Z,93736.28
2019-01-28T07:12:32.297Z,93735.36
2019-01-28T07:15:05.957Z,93738.40
2019-01-28T07:17:39.152Z,93736.54
2019-01-28T07:20:17.597Z,93725.58
2019-01-28T07:22:50.929Z,93721.21
2019-01-28T07:25:24.021Z,93721.20
2019-01-28T07:27:57.373Z,93723.53
2019-01-28T07:30:36.652Z,93730.00
2019-01-28T07:33:09.952Z,93715.28
2019-01-28T07:35:42.932Z,93701.30
2019-01-28T07:38:16.095Z,93708.68
2019-01-28T07:40:49.270Z,93700.02
2019-01-28T07:43:22.331Z,93701.03
2019-01-28T07:45:55.364Z,93708.27
2019-01-28T07:48:29.838Z,93718.72
2019-01-28T07:51:03.306Z,93712.86
2019-01-28T07:53:36.664Z,93712.74
2019-01-28T07:56:10.062Z,93712.66
2019-01-28T07:58:43.470Z,93711.65
2019-01-28T08:01:16.896Z,93707.88
2019-01-28T08:03:50.384Z,93716.10
2019-01-28T08:06:24.194Z,93705.77
2019-01-28T08:08:57.513Z,93704.06
2019-01-28T08:11:30.874Z,93707.34
2019-01-28T08:14:04.206Z,93711.90
2019-01-28T08:16:37.981Z,93708.50
2019-01-28T08:19:11.801Z,93694.49
2019-01-28T08:21:45.272Z,93693.89
2019-01-28T08:24:18.397Z,93680.70
2019-01-28T08:26:52.108Z,93680.31
2019-01-28T08:29:25.488Z,93682.34
2019-01-28T08:31:59.037Z,93669.51
2019-01-28T08:34:34.252Z,93670.91
2019-01-28T08:37:08.127Z,93678.50
2019-01-28T08:39:42.873Z,93659.48
2019-01-28T08:42:16.134Z,93649.83
2019-01-28T08:44:49.716Z,93651.67
2019-01-28T08:47:23.365Z,93646.48
2019-01-28T08:49:56.654Z,93661.88
2019-01-28T08:52:30.536Z,93654.13
2019-01-28T08:55:05.325Z,93656.30
2019-01-28T08:57:39.132Z,93652.98
2019-01-28T09:00:24.859Z,93649.70
2019-01-28T09:02:58.262Z,93650.28
2019-01-28T09:05:31.763Z,93646.47
2019-01-28T09:08:05.648Z,93639.89
2019-01-28T09:10:39.618Z,93648.47
2019-01-28T09:13:13.018Z,93648.28
2019-01-28T09:15:46.275Z,93644.90
2019-01-28T09:18:26.282Z,93640.16
2019-01-28T09:20:55.195Z,93642.64
2019-01-28T09:23:28.518Z,93641.88
2019-01-28T09:26:02.052Z,93636.55
2019-01-28T09:28:35.606Z,93631.14
2019-01-28T09:31:09.282Z,93623.69
2019-01-28T09:33:42.435Z,93616.83
2019-01-28T09:36:15.891Z,93615.69
2019-01-28T09:38:49.736Z,93608.59
2019-01-28T09:41:22.852Z,93608.30
2019-01-28T09:43:55.948Z,93609.69
2019-01-28T09:46:29.266Z,93606.34
2019-01-28T09:49:02.473Z,93605.91
2019-01-28T09:51:35.965Z,93610.53
2019-01-28T09:54:09.963Z,93603.56
2019-01-28T09:56:43.797Z,93588.53
2019-01-28T09:59:17.142Z,93587.36
2019-01-28T10:01:50.422Z,93589.36
2019-01-28T10:04:24.005Z,93596.34
2019-01-28T10:06:57.369Z,93583.34
2019-01-28T10:09:30.815Z,93585.00
2019-01-28T10:12:04.096Z,93571.61
2019-01-28T10:14:37.316Z,93566.30
2019-01-28T10:17:10.857Z,93562.23
2019-01-28T10:19:44.212Z,93575.94
2019-01-28T10:22:17.651Z,93565.64
2019-01-28T10:24:50.808Z,93566.05
2019-01-28T10:27:24.224Z,93540.77
2019-01-28T10:29:57.714Z,93544.37
2019-01-28T10:32:35.932Z,93529.02
2019-01-28T10:35:06.723Z,93544.22
2019-01-28T10:37:40.499Z,93537.66
2019-01-28T10:40:17.676Z,93529.00
2019-01-28T10:42:51.049Z,93525.49
2019-01-28T10:45:24.681Z,93512.36
2019-01-28T10:48:00.742Z,93505.32
2019-01-28T10:50:35.708Z,93497.88
2019-01-28T10:53:09.685Z,93490.68
2019-01-28T10:55:44.165Z,93496.37
2019-01-28T10:58:17.622Z,93499.23
2019-01-28T11:00:53.149Z,93496.56
2019-01-28T11:03:28.085Z,93488.44
2019-01-28T11:06:01.471Z,93496.25
2019-01-28T11:08:36.284Z,93482.64
2019-01-28T11:11:09.700Z,93473.23
2019-01-28T11:13:42.763Z,93475.94
2019-01-28T11:16:16.278Z,93479.16
2019-01-28T11:18:57.375Z,93472.02
2019-01-28T11:21:25.292Z,93482.11
2019-01-28T11:23:58.854Z,93477.72
2019-01-28T11:26:32.426Z,93486.34
2019-01-28T11:29:05.869Z,93487.95
2019-01-28T11:31:39.160Z,93493.06
2019-01-28T11:34:13.020Z,93482.08
2019-01-28T11:36:46.181Z,93483.23
2019-01-28T11:39:19.588Z,93484.00
2019-01-28T11:41:52.947Z,93491.31
2019-01-28T11:44:26.415Z,93478.36
2019-01-28T11:47:00.085Z,93477.14
2019-01-28T11:49:33.677Z,93475.77
2019-01-28T11:52:07.435Z,93486.72
2019-01-28T11:54:40.827Z,93477.13
2019-01-28T11:57:14.523Z,93476.64
2019-01-28T11:59:48.130Z,93472.94
2019-01-28T12:02:21.994Z,93461.55
2019-01-28T12:04:55.852Z,93469.34
2019-01-28T12:07:29.665Z,93458.59
2019-01-28T12:10:03.165Z,93450.12
2019-01-28T12:12:36.993Z,93453.33
2019-01-28T12:15:12.700Z,93466.22
2019-01-28T12:17:45.972Z,93466.95
2019-01-28T12:20:20.145Z,93471.79
2019-01-28T12:22:53.454Z,93463.41
2019-01-28T12:25:27.015Z,93456.95
2019-01-28T12:28:00.470Z,93466.96
2019-01-28T12:30:34.439Z,93458.25
2019-01-28T12:33:07.919Z,93448.20
2019-01-28T12:35:41.389Z,93450.44
2019-01-28T12:38:14.586Z,93458.02
2019-01-28T12:40:48.336Z,93429.44
2019-01-28T12:43:21.640Z,93435.28
2019-01-28T12:45:54.872Z,93406.46
2019-01-28T12:48:28.178Z,93403.28
2019-01-28T12:51:01.575Z,93402.56
2019-01-28T12:53:34.879Z,93401.11
2019-01-28T12:56:08.233Z,93389.18
2019-01-28T12:58:44.892Z,93384.14
2019-01-28T13:01:18.420Z,93365.27
2019-01-28T13:03:51.772Z,93359.72
2019-01-28T13:06:25.663Z,93354.80
2019-01-28T13:08:59.259Z,93371.46
2019-01-28T13:11:32.599Z,93383.13
2019-01-28T13:14:06.790Z,93383.04
2019-01-28T13:16:40.136Z,93368.25
2019-01-28T13:19:13.531Z,93373.88
2019-01-28T13:21:47.385Z,93370.98
2019-01-28T13:24:20.902Z,93372.55
2019-01-28T13:26:54.261Z,93357.53
2019-01-28T13:29:27.593Z,93361.96
2019-01-28T13:32:01.306Z,93356.17
2019-01-28T13:34:34.472Z,93352.76
2019-01-28T13:37:27.701Z,93338.22
2019-01-28T13:40:01.135Z,93318.30
2019-01-28T13:42:34.450Z,93340.26
2019-01-28T13:45:08.939Z,93327.75
2019-01-28T13:47:42.313Z,93349.61
2019-01-28T13:50:20.196Z,93352.95
2019-01-28T13:52:54.969Z,93328.05
2019-01-28T13:55:28.393Z,93326.55
2019-01-28T13:58:01.871Z,93328.60
2019-01-28T14:00:35.547Z,93339.80
2019-01-28T14:03:09.569Z,93340.79
2019-01-28T14:05:43.559Z,93347.63
2019-01-28T14:08:17.239Z,93332.17
2019-01-28T14:10:50.862Z,93337.77
2019-01-28T14:13:24.573Z,93341.09
2019-01-28T14:15:58.417Z,93345.57
2019-01-28T14:18:32.485Z,93332.41
2019-01-28T14:21:08.625Z,93331.54
2019-01-28T14:23:44.612Z,93322.13
2019-01-28T14:26:17.750Z,93325.17
2019-01-28T14:28:51.402Z,93342.67
2019-01-28T14:31:25.142Z,93346.98
2019-01-28T14:33:58.400Z,93336.47
2019-01-28T14:36:34.273Z,93338.08
2019-01-28T14:39:13.663Z,93337.91
2019-01-28T14:41:49.985Z,93336.89
2019-01-28T14:44:23.749Z,93337.69
2019-01-28T14:46:57.784Z,93331.92
2019-01-28T14:49:32.464Z,93348.61
2019-01-28T14:52:06.681Z,93351.34
2019-01-28T14:54:40.410Z,93337.95
2019-01-28T14:57:14.250Z,93352.67
2019-01-28T14:59:48.487Z,93332.41
2019-01-28T15:02:22.355Z,93345.39
2019-01-28T15:04:56.498Z,93333.79
2019-01-28T15:07:31.431Z,93352.69
2019-01-28T15:10:04.899Z,93342.66
2019-01-28T15:12:44.244Z,93365.48
2019-01-28T15:15:17.510Z,93366.76
2019-01-28T15:17:51.447Z,93361.83
2019-01-28T15:20:25.138Z,93373.12
2019-01-28T15:23:01.493Z,93370.68
2019-01-28T15:25:34.707Z,93374.97
2019-01-28T15:28:11.388Z,93376.61
2019-01-28T15:30:45.612Z,93377.13
2019-01-28T15:33:19.696Z,93383.01
2019-01-28T15:35:53.327Z,93379.70
2019-01-28T15:38:27.141Z,93383.53
2019-01-28T15:41:01.088Z,93378.94
2019-01-28T15:43:34.849Z,93371.28
2019-01-28T15:46:08.215Z,93360.20
2019-01-28T15:48:41.749Z,93363.33
2019-01-28T15:51:18.108Z,93358.91
2019-01-28T15:53:52.000Z,93367.11
2019-01-28T15:56:27.817Z,93361.05
2019-01-28T15:59:01.225Z,93377.29
2019-01-28T16:01:35.019Z,93380.52
2019-01-28T16:04:08.735Z,93379.05
2019-01-28T16:06:42.609Z,93374.55
2019-01-28T16:09:16.434Z,93367.81
2019-01-28T16:11:49.921Z,93378.66
2019-01-28T16:14:23.535Z,93398.05
2019-01-28T16:16:57.016Z,93386.14
2019-01-28T16:19:32.038Z,93399.94
2019-01-28T16:22:06.350Z,93388.70
2019-01-28T16:24:40.692Z,93382.07
2019-01-28T16:27:18.112Z,93370.67
2019-01-28T16:29:55.518Z,93368.46
2019-01-28T16:32:34.150Z,93374.11
2019-01-28T16:35:11.002Z,93380.36
2019-01-28T16:37:44.959Z,93379.30
2019-01-28T16:40:20.797Z,93375.66
2019-01-28T16:42:54.621Z,93377.22
2019-01-28T16:45:30.728Z,93373.54
2019-01-28T16:48:07.965Z,93376.97
2019-01-28T16:50:41.642Z,93371.56
2019-01-28T16:53:16.015Z,93361.59
2019-01-28T16:55:49.925Z,93378.07
2019-01-28T16:58:24.476Z,93390.80
2019-01-28T17:01:01.603Z,93389.39
2019-01-28T17:03:34.921Z,93408.41
2019-01-28T17:06:08.798Z,93416.23
2019-01-28T17:08:42.431Z,93415.83
2019-01-28T17:11:16.195Z,93419.98
2019-01-28T17:13:49.737Z,93422.80
2019-01-28T17:16:24.257Z,93415.34
2019-01-28T17:18:57.636Z,93413.63
2019-01-28T17:21:30.804Z,93418.43
2019-01-28T17:24:04.317Z,93402.23
2019-01-28T17:26:57.961Z,93395.52
2019-01-28T17:29:31.472Z,93396.50
2019-01-28T17:32:04.768Z,93393.09
2019-01-28T17:34:38.532Z,93409.36
2019-01-28T17:37:13.257Z,93426.67
2019-01-28T17:39:47.158Z,93431.60
2019-01-28T17:42:20.623Z,93419.57
2019-01-28T17:44:53.669Z,93413.30
2019-01-28T17:47:27.307Z,93427.60
2019-01-28T17:50:01.472Z,93420.27
2019-01-28T17:52:34.956Z,93425.50
2019-01-28T17:55:09.057Z,93421.94
2019-01-28T17:57:42.652Z,93425.94
2019-01-28T18:00:30.009Z,93435.59
2019-01-28T18:03:05.967Z,93430.58
2019-01-28T18:05:41.925Z,93441.47
2019-01-28T18:08:15.988Z,93434.46
2019-01-28T18:10:50.096Z,93441.84
2019-01-28T18:13:23.352Z,93437.64
2019-01-28T18:15:56.489Z,93447.99
2019-01-28T18:18:30.118Z,93464.66
2019-01-28T18:21:03.570Z,93434.23
2019-01-28T18:23:48.738Z,93456.73
2019-01-28T18:26:21.840Z,93444.11
2019-01-28T18:28:54.712Z,93433.63
2019-01-28T18:31:27.924Z,93445.66
2019-01-28T18:34:01.202Z,93449.59
2019-01-28T18:36:34.221Z,93455.97
2019-01-28T18:39:11.273Z,93449.49
2019-01-28T18:41:44.322Z,93440.06
2019-01-28T18:44:17.727Z,93435.98
2019-01-28T18:46:51.258Z,93432.45
2019-01-28T18:49:24.346Z,93445.94
2019-01-28T18:51:57.419Z,93461.58
2019-01-28T18:54:30.554Z,93442.55
2019-01-28T18:57:03.367Z,93451.23
2019-01-28T18:59:37.272Z,93468.44
2019-01-28T19:02:10.638Z,93466.33
2019-01-28T19:04:43.868Z,93476.90
2019-01-28T19:07:42.015Z,93468.04
2019-01-28T19:10:34.768Z,93466.28
2019-01-28T19:13:14.519Z,93469.18
2019-01-28T19:16:09.537Z,93472.73
2019-01-28T19:18:49.562Z,93466.80
2019-01-28T19:21:37.091Z,93454.83
2019-01-28T19:24:10.271Z,93454.02
2019-01-28T19:26:43.384Z,93467.57
2019-01-28T19:29:17.001Z,93462.61
2019-01-28T19:31:50.380Z,93466.80
2019-01-28T19:34:23.620Z,93467.67
2019-01-28T19:36:57.056Z,93465.94
2019-01-28T19:39:31.120Z,93470.95
2019-01-28T19:42:04.407Z,93475.05
2019-01-28T19:44:37.593Z,93476.19
2019-01-28T19:47:11.379Z,93471.22
2019-01-28T19:49:44.520Z,93475.70
2019-01-28T19:52:17.716Z,93477.70
2019-01-28T19:54:51.074Z,93480.17
2019-01-28T19:57:24.187Z,93466.98
2019-01-28T19:59:57.104Z,93477.55
2019-01-28T20:02:30.099Z,93479.49
2019-01-28T20:05:03.433Z,93480.61
2019-01-28T20:07:36.503Z,93490.75
2019-01-28T20:10:10.490Z,93481.55
2019-01-28T20:12:44.044Z,93481.36
2019-01-28T20:15:19.120Z,93487.25
2019-01-28T20:17:52.451Z,93489.47
2019-01-28T20:20:25.797Z,93489.42
2019-01-28T20:22:59.351Z,93474.69
2019-01-28T20:25:32.622Z,93484.40
2019-01-28T20:28:05.884Z,93474.20
2019-01-28T20:30:38.996Z,93471.50
2019-01-28T20:33:12.559Z,93472.41
2019-01-28T20:35:45.564Z,93469.76
2019-01-28T20:38:18.848Z,93478.61
2019-01-28T20:40:52.259Z,93480.91
2019-01-28T20:43:25.584Z,93476.87
2019-01-28T20:45:59.034Z,93482.55
2019-01-28T20:48:32.169Z,93481.91
2019-01-28T20:51:05.736Z,93475.17
2019-01-28T20:53:38.999Z,93482.48
2019-01-28T20:56:12.964Z,93476.50
2019-01-28T20:58:48.140Z,93476.70
2019-01-28T21:01:21.573Z,93468.94
2019-01-28T21:03:55.031Z,93468.68
2019-01-28T21:06:28.362Z,93471.38
2019-01-28T21:09:01.876Z,93472.77
2019-01-28T21:11:35.410Z,93479.30
2019-01-28T21:14:08.723Z,93484.20
2019-01-28T21:16:42.392Z,93482.91
2019-01-28T21:19:15.626Z,93483.55
2019-01-28T21:21:48.755Z,93479.50
2019-01-28T21:24:21.938Z,93476.45
2019-01-28T21:26:55.286Z,93469.52
2019-01-28T21:29:28.564Z,93474.21
2019-01-28T21:32:03.474Z,93483.27
2019-01-28T21:34:36.435Z,93481.22
2019-01-28T21:37:22.513Z,93476.93
2019-01-28T21:39:56.677Z,93476.94
2019-01-28T21:42:30.607Z,93472.95
2019-01-28T21:45:05.857Z,93474.82
2019-01-28T21:47:39.019Z,93488.42
2019-01-28T21:50:12.761Z,93492.02
2019-01-28T21:52:45.831Z,93485.31
2019-01-28T21:55:19.168Z,93494.05
2019-01-28T21:57:52.426Z,93500.22
2019-01-28T22:00:26.116Z,93515.00
2019-01-28T22:02:59.330Z,93503.33
2019-01-28T22:05:32.569Z,93511.73
2019-01-28T22:08:05.561Z,93510.83
2019-01-28T22:10:38.987Z,93505.83
2019-01-28T22:13:12.180Z,93508.33
2019-01-28T22:15:45.177Z,93498.52
2019-01-28T22:18:18.473Z,93503.25
2019-01-28T22:20:51.835Z,93497.66
2019-01-28T22:23:24.852Z,93506.04
2019-01-28T22:25:57.826Z,93502.72
2019-01-28T22:28:30.920Z,93502.73
2019-01-28T22:31:04.067Z,93505.39
2019-01-28T22:33:37.317Z,93502.62
2019-01-28T22:36:10.732Z,93500.09
2019-01-28T22:38:44.995Z,93495.12
2019-01-28T22:41:18.687Z,93493.41
2019-01-28T22:43:51.649Z,93489.06
2019-01-28T22:46:24.722Z,93494.16
2019-01-28T22:48:57.781Z,93491.48
2019-01-28T22:51:30.777Z,93495.36
2019-01-28T22:54:03.843Z,93483.73
2019-01-28T22:56:37.286Z,93491.08
2019-01-28T22:59:10.275Z,93482.11
2019-01-28T23:01:43.406Z,93488.13
2019-01-28T23:04:16.819Z,93506.05
2019-01-28T23:06:49.939Z,93501.66
2019-01-28T23:09:23.002Z,93494.28
2019-01-28T23:11:55.709Z,93492.47
2019-01-28T23:14:28.745Z,93502.73
2019-01-28T23:17:01.887Z,93511.34
2019-01-28T23:19:35.825Z,93511.81
2019-01-28T23:22:16.292Z,93505.94
2019-01-28T23:24:44.781Z,93497.64
2019-01-28T23:27:17.896Z,93491.34
2019-01-28T23:29:51.083Z,93498.17
2019-01-28T23:32:24.161Z,93486.72
2019-01-28T23:34:58.188Z,93488.61
2019-01-28T23:37:31.269Z,93487.09
2019-01-28T23:40:04.772Z,93493.65
2019-01-28T23:42:37.937Z,93489.23
2019-01-28T23:45:11.635Z,93484.83
2019-01-28T23:47:45.127Z,93488.42
2019-01-28T23:50:18.286Z,93484.05
2019-01-28T23:52:51.369Z,93494.90
2019-01-28T23:55:24.301Z,93508.20
2019-01-28T23:57:58.747Z,93529.72
